Allensville, Kentucky
Current Conditions -  °F | °C
As of 5:52 AM on Saturday 25 Oct 2014 (Local Time) from KCKV Reporting Station
Haze Haze  
Wind Chill: 47°   Ceiling: 4600
Heat Index: 47°   Visibility: 5mi
Dew Point: 45°   Wind: 3mph
Humidity: 93%   Direction: 110°ESE
Pressure: 30.07"   Gusts: NA
Location:  36.72°N, 87.07°W
Report Text: KCKV 251052Z AUTO 11003KT 5SM BR BKN046 08/07 A3007 RMK AO2 SLP182 T00830072
Loading
Personal Weather Stations






























Interactive Weather Map
Tropical Storm Tracking
New forecast layout! Learn more

10-Day Weather Forecast

Advertisements
Track Severe Weather on mobile